sensor_id;sensor_type;location;lat;lon;timestamp;temperature;humidity
36458;DHT22;22480;50.546;12.292;2022-12-01T00:00:42;1.90;99.90
36458;DHT22;22480;50.546;12.292;2022-12-01T00:03:07;1.90;99.90
36458;DHT22;22480;50.546;12.292;2022-12-01T00:05:34;1.80;99.90
36458;DHT22;22480;50.546;12.292;2022-12-01T00:08:00;1.90;99.90
36458;DHT22;22480;50.546;12.292;2022-12-01T00:10:26;1.90;99.90
36458;DHT22;22480;50.546;12.292;2022-12-01T00:12:59;1.90;99.90
36458;DHT22;22480;50.546;12.292;2022-12-01T00:15:28;1.90;99.90
36458;DHT22;22480;50.546;12.292;2022-12-01T00:17:56;1.90;99.90
36458;DHT22;22480;50.546;12.292;2022-12-01T00:20:22;1.80;99.90
36458;DHT22;22480;50.546;12.292;2022-12-01T00:22:48;1.80;99.90
36458;DHT22;22480;50.546;12.292;2022-12-01T00:25:17;1.80;99.90
36458;DHT22;22480;50.546;12.292;2022-12-01T00:27:47;1.80;99.90
36458;DHT22;22480;50.546;12.292;2022-12-01T00:30:14;1.70;99.90
36458;DHT22;22480;50.546;12.292;2022-12-01T00:32:39;1.70;99.90
36458;DHT22;22480;50.546;12.292;2022-12-01T00:35:05;1.70;99.90
36458;DHT22;22480;50.546;12.292;2022-12-01T00:37:32;1.70;99.90
36458;DHT22;22480;50.546;12.292;2022-12-01T00:39:58;1.60;99.90
36458;DHT22;22480;50.546;12.292;2022-12-01T00:42:25;1.60;99.90
36458;DHT22;22480;50.546;12.292;2022-12-01T00:44:50;1.60;99.90
36458;DHT22;22480;50.546;12.292;2022-12-01T00:47:16;1.50;99.90
36458;DHT22;22480;50.546;12.292;2022-12-01T00:49:42;1.50;99.90
36458;DHT22;22480;50.546;12.292;2022-12-01T00:52:11;1.40;99.90
36458;DHT22;22480;50.546;12.292;2022-12-01T00:54:37;1.40;99.90
36458;DHT22;22480;50.546;12.292;2022-12-01T00:57:02;1.40;99.90
36458;DHT22;22480;50.546;12.292;2022-12-01T00:59:28;1.40;99.90
36458;DHT22;22480;50.546;12.292;2022-12-01T01:01:54;1.40;99.90
36458;DHT22;22480;50.546;12.292;2022-12-01T01:04:20;1.40;99.90
36458;DHT22;22480;50.546;12.292;2022-12-01T01:06:46;1.30;99.90
36458;DHT22;22480;50.546;12.292;2022-12-01T01:09:13;1.30;99.90
36458;DHT22;22480;50.546;12.292;2022-12-01T01:11:39;1.30;99.90
36458;DHT22;22480;50.546;12.292;2022-12-01T01:14:05;1.20;99.90
36458;DHT22;22480;50.546;12.292;2022-12-01T01:16:31;1.20;99.90
36458;DHT22;22480;50.546;12.292;2022-12-01T01:18:57;1.10;99.90
36458;DHT22;22480;50.546;12.292;2022-12-01T01:21:24;1.20;99.90
36458;DHT22;22480;50.546;12.292;2022-12-01T01:23:51;1.10;99.90
36458;DHT22;22480;50.546;12.292;2022-12-01T01:26:21;1.00;99.90
36458;DHT22;22480;50.546;12.292;2022-12-01T01:28:48;1.00;99.90
36458;DHT22;22480;50.546;12.292;2022-12-01T01:31:17;0.90;99.90
36458;DHT22;22480;50.546;12.292;2022-12-01T01:33:43;0.70;99.90
36458;DHT22;22480;50.546;12.292;2022-12-01T01:36:09;0.60;99.90
36458;DHT22;22480;50.546;12.292;2022-12-01T01:38:35;0.40;99.90
36458;DHT22;22480;50.546;12.292;2022-12-01T01:41:02;0.30;99.90
36458;DHT22;22480;50.546;12.292;2022-12-01T01:46:14;0.10;99.90
36458;DHT22;22480;50.546;12.292;2022-12-01T01:48:44;-0.10;99.90
36458;DHT22;22480;50.546;12.292;2022-12-01T01:51:12;-0.20;99.90
36458;DHT22;22480;50.546;12.292;2022-12-01T01:53:40;-0.30;99.90
36458;DHT22;22480;50.546;12.292;2022-12-01T01:56:08;-0.30;99.90
36458;DHT22;22480;50.546;12.292;2022-12-01T01:58:36;-0.40;99.90
36458;DHT22;22480;50.546;12.292;2022-12-01T02:01:01;-0.50;99.90
36458;DHT22;22480;50.546;12.292;2022-12-01T02:03:28;-0.60;99.90
36458;DHT22;22480;50.546;12.292;2022-12-01T02:05:54;-0.70;99.90
36458;DHT22;22480;50.546;12.292;2022-12-01T02:08:20;-0.90;99.90
36458;DHT22;22480;50.546;12.292;2022-12-01T02:16:53;-1.10;99.90
36458;DHT22;22480;50.546;12.292;2022-12-01T02:22:47;-1.40;99.90
36458;DHT22;22480;50.546;12.292;2022-12-01T02:33:13;-1.30;99.90
36458;DHT22;22480;50.546;12.292;2022-12-01T02:38:38;-1.40;99.90
36458;DHT22;22480;50.546;12.292;2022-12-01T02:41:11;-1.40;99.90
36458;DHT22;22480;50.546;12.292;2022-12-01T02:48:53;-1.40;99.90
36458;DHT22;22480;50.546;12.292;2022-12-01T02:51:27;-1.40;99.90
36458;DHT22;22480;50.546;12.292;2022-12-01T02:53:55;-1.40;99.90
36458;DHT22;22480;50.546;12.292;2022-12-01T02:56:22;-1.60;99.90
36458;DHT22;22480;50.546;12.292;2022-12-01T02:58:49;-1.60;99.90
36458;DHT22;22480;50.546;12.292;2022-12-01T03:16:07;-1.30;99.90
36458;DHT22;22480;50.546;12.292;2022-12-01T03:21:19;-1.00;99.90
36458;DHT22;22480;50.546;12.292;2022-12-01T03:23:52;-0.90;99.90
36458;DHT22;22480;50.546;12.292;2022-12-01T03:26:21;-0.80;99.90
36458;DHT22;22480;50.546;12.292;2022-12-01T03:28:52;-0.70;99.90
36458;DHT22;22480;50.546;12.292;2022-12-01T03:31:24;-0.60;99.90
36458;DHT22;22480;50.546;12.292;2022-12-01T03:34:01;-0.60;99.90
36458;DHT22;22480;50.546;12.292;2022-12-01T03:36:42;-0.60;99.90
36458;DHT22;22480;50.546;12.292;2022-12-01T03:39:12;-0.60;99.90
36458;DHT22;22480;50.546;12.292;2022-12-01T03:41:57;-0.60;99.90
36458;DHT22;22480;50.546;12.292;2022-12-01T03:44:30;-0.60;99.90
36458;DHT22;22480;50.546;12.292;2022-12-01T03:47:03;-0.50;99.90
36458;DHT22;22480;50.546;12.292;2022-12-01T03:49:30;-0.40;99.90
36458;DHT22;22480;50.546;12.292;2022-12-01T03:55:03;-0.20;99.90
36458;DHT22;22480;50.546;12.292;2022-12-01T04:00:09;-0.10;99.90
36458;DHT22;22480;50.546;12.292;2022-12-01T04:02:39;0.00;99.90
36458;DHT22;22480;50.546;12.292;2022-12-01T04:05:06;-0.10;99.90
36458;DHT22;22480;50.546;12.292;2022-12-01T04:07:34;-0.10;99.90
36458;DHT22;22480;50.546;12.292;2022-12-01T04:10:00;0.00;99.90
36458;DHT22;22480;50.546;12.292;2022-12-01T04:12:26;-0.10;99.90
36458;DHT22;22480;50.546;12.292;2022-12-01T04:15:05;-0.10;99.90
36458;DHT22;22480;50.546;12.292;2022-12-01T04:17:33;0.00;99.90
36458;DHT22;22480;50.546;12.292;2022-12-01T04:19:59;-0.10;99.90
36458;DHT22;22480;50.546;12.292;2022-12-01T04:22:25;-0.10;99.90
36458;DHT22;22480;50.546;12.292;2022-12-01T04:24:52;-0.10;99.90
36458;DHT22;22480;50.546;12.292;2022-12-01T04:27:18;-0.10;99.90
36458;DHT22;22480;50.546;12.292;2022-12-01T04:29:44;-0.10;99.90
36458;DHT22;22480;50.546;12.292;2022-12-01T04:32:11;-0.10;99.90
36458;DHT22;22480;50.546;12.292;2022-12-01T04:34:37;-0.10;99.90
36458;DHT22;22480;50.546;12.292;2022-12-01T04:37:03;-0.10;99.90
36458;DHT22;22480;50.546;12.292;2022-12-01T04:39:30;-0.10;99.90
36458;DHT22;22480;50.546;12.292;2022-12-01T04:41:55;-0.10;99.90
36458;DHT22;22480;50.546;12.292;2022-12-01T04:44:21;-0.10;99.90
36458;DHT22;22480;50.546;12.292;2022-12-01T04:46:47;-0.10;99.90
36458;DHT22;22480;50.546;12.292;2022-12-01T04:49:13;-0.10;99.90
36458;DHT22;22480;50.546;12.292;2022-12-01T04:51:38;-0.10;99.90
36458;DHT22;22480;50.546;12.292;2022-12-01T04:54:04;-0.10;99.90
36458;DHT22;22480;50.546;12.292;2022-12-01T04:56:31;-0.10;99.90
36458;DHT22;22480;50.546;12.292;2022-12-01T04:58:57;-0.10;99.90
36458;DHT22;22480;50.546;12.292;2022-12-01T05:01:24;0.00;99.90
36458;DHT22;22480;50.546;12.292;2022-12-01T05:03:50;0.00;99.90
36458;DHT22;22480;50.546;12.292;2022-12-01T05:06:18;-0.10;99.90
36458;DHT22;22480;50.546;12.292;2022-12-01T05:08:44;0.00;99.90
36458;DHT22;22480;50.546;12.292;2022-12-01T05:11:11;0.00;99.90
36458;DHT22;22480;50.546;12.292;2022-12-01T05:13:42;0.00;99.90
36458;DHT22;22480;50.546;12.292;2022-12-01T05:16:26;0.00;99.90
36458;DHT22;22480;50.546;12.292;2022-12-01T05:18:58;0.00;99.90
36458;DHT22;22480;50.546;12.292;2022-12-01T05:21:44;0.00;99.90
36458;DHT22;22480;50.546;12.292;2022-12-01T05:24:11;0.00;99.90
36458;DHT22;22480;50.546;12.292;2022-12-01T05:26:37;0.00;99.90
36458;DHT22;22480;50.546;12.292;2022-12-01T05:29:03;0.10;99.90
36458;DHT22;22480;50.546;12.292;2022-12-01T05:31:29;0.10;99.90
36458;DHT22;22480;50.546;12.292;2022-12-01T05:33:55;0.10;99.90
36458;DHT22;22480;50.546;12.292;2022-12-01T05:36:21;0.10;99.90
36458;DHT22;22480;50.546;12.292;2022-12-01T05:38:47;0.20;99.90
36458;DHT22;22480;50.546;12.292;2022-12-01T05:41:12;0.20;99.90
36458;DHT22;22480;50.546;12.292;2022-12-01T05:43:38;0.20;99.90
36458;DHT22;22480;50.546;12.292;2022-12-01T05:46:04;0.20;99.90
36458;DHT22;22480;50.546;12.292;2022-12-01T05:48:30;0.20;99.90
36458;DHT22;22480;50.546;12.292;2022-12-01T05:50:56;0.30;99.90
36458;DHT22;22480;50.546;12.292;2022-12-01T05:53:22;0.30;99.90
36458;DHT22;22480;50.546;12.292;2022-12-01T05:55:53;0.30;99.90
36458;DHT22;22480;50.546;12.292;2022-12-01T05:58:21;0.30;99.90
36458;DHT22;22480;50.546;12.292;2022-12-01T06:00:47;0.30;99.90
36458;DHT22;22480;50.546;12.292;2022-12-01T06:03:13;0.30;99.90
36458;DHT22;22480;50.546;12.292;2022-12-01T06:05:39;0.30;99.90
36458;DHT22;22480;50.546;12.292;2022-12-01T06:08:05;0.30;99.90
36458;DHT22;22480;50.546;12.292;2022-12-01T06:10:30;0.30;99.90
36458;DHT22;22480;50.546;12.292;2022-12-01T06:12:56;0.20;99.90
36458;DHT22;22480;50.546;12.292;2022-12-01T06:15:23;0.30;99.90
36458;DHT22;22480;50.546;12.292;2022-12-01T06:17:48;0.20;99.90
36458;DHT22;22480;50.546;12.292;2022-12-01T06:20:14;0.20;99.90
36458;DHT22;22480;50.546;12.292;2022-12-01T06:22:40;0.20;99.90
36458;DHT22;22480;50.546;12.292;2022-12-01T06:25:06;0.30;99.90
36458;DHT22;22480;50.546;12.292;2022-12-01T06:27:32;0.30;99.90
36458;DHT22;22480;50.546;12.292;2022-12-01T06:29:57;0.20;99.90
36458;DHT22;22480;50.546;12.292;2022-12-01T06:32:23;0.20;99.90
36458;DHT22;22480;50.546;12.292;2022-12-01T06:34:49;0.20;99.90
36458;DHT22;22480;50.546;12.292;2022-12-01T06:37:15;0.20;99.90
36458;DHT22;22480;50.546;12.292;2022-12-01T06:39:41;0.20;99.90
36458;DHT22;22480;50.546;12.292;2022-12-01T06:42:07;0.20;99.90
36458;DHT22;22480;50.546;12.292;2022-12-01T06:44:32;0.20;99.90
36458;DHT22;22480;50.546;12.292;2022-12-01T06:46:58;0.20;99.90
36458;DHT22;22480;50.546;12.292;2022-12-01T06:49:24;0.20;99.90
36458;DHT22;22480;50.546;12.292;2022-12-01T06:51:50;0.20;99.90
36458;DHT22;22480;50.546;12.292;2022-12-01T06:54:15;0.20;99.90
36458;DHT22;22480;50.546;12.292;2022-12-01T06:56:43;0.30;99.90
36458;DHT22;22480;50.546;12.292;2022-12-01T06:59:09;0.30;99.90
36458;DHT22;22480;50.546;12.292;2022-12-01T07:01:35;0.30;99.90
36458;DHT22;22480;50.546;12.292;2022-12-01T07:04:01;0.30;99.90
36458;DHT22;22480;50.546;12.292;2022-12-01T07:06:29;0.30;99.90
36458;DHT22;22480;50.546;12.292;2022-12-01T07:08:55;0.30;99.90
36458;DHT22;22480;50.546;12.292;2022-12-01T07:11:20;0.30;99.90
36458;DHT22;22480;50.546;12.292;2022-12-01T07:13:46;0.30;99.90
36458;DHT22;22480;50.546;12.292;2022-12-01T07:16:14;0.30;99.90
36458;DHT22;22480;50.546;12.292;2022-12-01T07:18:40;0.30;99.90
36458;DHT22;22480;50.546;12.292;2022-12-01T07:21:10;0.30;99.90
36458;DHT22;22480;50.546;12.292;2022-12-01T07:23:37;0.30;99.90
36458;DHT22;22480;50.546;12.292;2022-12-01T07:26:14;0.40;99.90
36458;DHT22;22480;50.546;12.292;2022-12-01T07:28:40;0.40;99.90
36458;DHT22;22480;50.546;12.292;2022-12-01T07:31:15;0.40;99.90
36458;DHT22;22480;50.546;12.292;2022-12-01T07:33:41;0.40;99.90
36458;DHT22;22480;50.546;12.292;2022-12-01T07:36:07;0.40;99.90
36458;DHT22;22480;50.546;12.292;2022-12-01T07:38:34;0.40;99.90
36458;DHT22;22480;50.546;12.292;2022-12-01T07:41:05;0.40;99.90
36458;DHT22;22480;50.546;12.292;2022-12-01T07:43:31;0.40;99.90
36458;DHT22;22480;50.546;12.292;2022-12-01T07:46:12;0.40;99.90
36458;DHT22;22480;50.546;12.292;2022-12-01T07:48:39;0.40;99.90
36458;DHT22;22480;50.546;12.292;2022-12-01T07:51:07;0.40;99.90
36458;DHT22;22480;50.546;12.292;2022-12-01T07:53:33;0.50;99.90
36458;DHT22;22480;50.546;12.292;2022-12-01T07:55:59;0.50;99.90
36458;DHT22;22480;50.546;12.292;2022-12-01T07:58:25;0.50;99.90
36458;DHT22;22480;50.546;12.292;2022-12-01T08:00:51;0.40;99.90
36458;DHT22;22480;50.546;12.292;2022-12-01T08:03:17;0.40;99.90
36458;DHT22;22480;50.546;12.292;2022-12-01T08:05:43;0.40;99.90
36458;DHT22;22480;50.546;12.292;2022-12-01T08:08:09;0.50;99.90
36458;DHT22;22480;50.546;12.292;2022-12-01T08:10:35;0.50;99.90
36458;DHT22;22480;50.546;12.292;2022-12-01T08:13:01;0.40;99.90
36458;DHT22;22480;50.546;12.292;2022-12-01T08:15:27;0.50;99.90
36458;DHT22;22480;50.546;12.292;2022-12-01T08:17:52;0.50;99.90
36458;DHT22;22480;50.546;12.292;2022-12-01T08:20:18;0.50;99.90
36458;DHT22;22480;50.546;12.292;2022-12-01T08:22:46;0.50;99.90
36458;DHT22;22480;50.546;12.292;2022-12-01T08:25:12;0.50;99.90
36458;DHT22;22480;50.546;12.292;2022-12-01T08:27:38;0.50;99.90
36458;DHT22;22480;50.546;12.292;2022-12-01T08:30:04;0.50;99.90
36458;DHT22;22480;50.546;12.292;2022-12-01T08:32:30;0.50;99.90
36458;DHT22;22480;50.546;12.292;2022-12-01T08:34:56;0.60;99.90
36458;DHT22;22480;50.546;12.292;2022-12-01T08:37:22;0.60;99.90
36458;DHT22;22480;50.546;12.292;2022-12-01T08:39:47;0.60;99.90
36458;DHT22;22480;50.546;12.292;2022-12-01T08:42:13;0.60;99.90
36458;DHT22;22480;50.546;12.292;2022-12-01T08:44:39;0.60;99.90
36458;DHT22;22480;50.546;12.292;2022-12-01T08:47:05;0.60;99.90
36458;DHT22;22480;50.546;12.292;2022-12-01T08:49:30;0.50;99.90
36458;DHT22;22480;50.546;12.292;2022-12-01T08:51:56;0.60;99.90
36458;DHT22;22480;50.546;12.292;2022-12-01T08:54:22;0.60;99.90
36458;DHT22;22480;50.546;12.292;2022-12-01T08:56:48;0.50;99.90
36458;DHT22;22480;50.546;12.292;2022-12-01T08:59:14;0.60;99.90
36458;DHT22;22480;50.546;12.292;2022-12-01T09:01:39;0.60;99.90
36458;DHT22;22480;50.546;12.292;2022-12-01T09:04:20;0.60;99.90
36458;DHT22;22480;50.546;12.292;2022-12-01T09:06:47;0.60;99.90
36458;DHT22;22480;50.546;12.292;2022-12-01T09:09:19;0.60;99.90
36458;DHT22;22480;50.546;12.292;2022-12-01T09:11:46;0.60;99.90
36458;DHT22;22480;50.546;12.292;2022-12-01T09:14:13;0.60;99.90
36458;DHT22;22480;50.546;12.292;2022-12-01T09:16:40;0.70;99.90
36458;DHT22;22480;50.546;12.292;2022-12-01T09:19:07;0.60;99.90
36458;DHT22;22480;50.546;12.292;2022-12-01T09:21:34;0.60;99.90
36458;DHT22;22480;50.546;12.292;2022-12-01T09:24:02;0.60;99.90
36458;DHT22;22480;50.546;12.292;2022-12-01T09:26:28;0.60;99.90
36458;DHT22;22480;50.546;12.292;2022-12-01T09:29:06;0.60;99.90
36458;DHT22;22480;50.546;12.292;2022-12-01T09:31:32;0.60;99.90
36458;DHT22;22480;50.546;12.292;2022-12-01T09:34:06;0.60;99.90
36458;DHT22;22480;50.546;12.292;2022-12-01T09:36:34;0.60;99.90
36458;DHT22;22480;50.546;12.292;2022-12-01T09:39:00;0.60;99.90
36458;DHT22;22480;50.546;12.292;2022-12-01T09:41:39;0.70;99.90
36458;DHT22;22480;50.546;12.292;2022-12-01T09:49:24;0.70;99.90
36458;DHT22;22480;50.546;12.292;2022-12-01T09:51:52;0.70;99.90
36458;DHT22;22480;50.546;12.292;2022-12-01T09:54:18;0.80;99.90
36458;DHT22;22480;50.546;12.292;2022-12-01T09:56:46;0.80;99.90
36458;DHT22;22480;50.546;12.292;2022-12-01T09:59:19;0.80;99.90
36458;DHT22;22480;50.546;12.292;2022-12-01T10:01:53;0.70;99.90
36458;DHT22;22480;50.546;12.292;2022-12-01T10:04:48;0.70;99.90
36458;DHT22;22480;50.546;12.292;2022-12-01T10:07:26;0.70;99.90
36458;DHT22;22480;50.546;12.292;2022-12-01T10:10:13;0.80;99.90
36458;DHT22;22480;50.546;12.292;2022-12-01T10:12:44;0.80;99.90
36458;DHT22;22480;50.546;12.292;2022-12-01T10:15:24;0.80;99.90
36458;DHT22;22480;50.546;12.292;2022-12-01T10:20:30;0.90;99.90
36458;DHT22;22480;50.546;12.292;2022-12-01T10:25:55;1.00;99.90
36458;DHT22;22480;50.546;12.292;2022-12-01T10:31:13;1.00;99.90
36458;DHT22;22480;50.546;12.292;2022-12-01T10:34:12;1.00;99.90
36458;DHT22;22480;50.546;12.292;2022-12-01T10:36:39;1.10;99.90
36458;DHT22;22480;50.546;12.292;2022-12-01T10:39:06;1.10;99.90
36458;DHT22;22480;50.546;12.292;2022-12-01T10:41:34;1.00;99.90
36458;DHT22;22480;50.546;12.292;2022-12-01T10:44:03;1.00;99.90
36458;DHT22;22480;50.546;12.292;2022-12-01T10:49:16;0.90;99.90
36458;DHT22;22480;50.546;12.292;2022-12-01T10:54:11;0.90;99.90
36458;DHT22;22480;50.546;12.292;2022-12-01T10:56:39;0.90;99.90
36458;DHT22;22480;50.546;12.292;2022-12-01T11:02:14;0.80;99.90
36458;DHT22;22480;50.546;12.292;2022-12-01T11:04:45;0.80;99.90
36458;DHT22;22480;50.546;12.292;2022-12-01T11:09:58;0.80;99.90
36458;DHT22;22480;50.546;12.292;2022-12-01T11:12:25;0.80;99.90
36458;DHT22;22480;50.546;12.292;2022-12-01T11:14:53;0.80;99.90
36458;DHT22;22480;50.546;12.292;2022-12-01T11:17:40;0.80;99.90
36458;DHT22;22480;50.546;12.292;2022-12-01T11:20:26;0.90;99.90
36458;DHT22;22480;50.546;12.292;2022-12-01T11:25:41;0.90;99.90
36458;DHT22;22480;50.546;12.292;2022-12-01T11:28:18;0.80;99.90
36458;DHT22;22480;50.546;12.292;2022-12-01T11:30:44;0.80;99.90
36458;DHT22;22480;50.546;12.292;2022-12-01T11:33:13;0.70;99.90
36458;DHT22;22480;50.546;12.292;2022-12-01T11:35:45;0.70;99.90
36458;DHT22;22480;50.546;12.292;2022-12-01T11:38:19;0.70;99.90
36458;DHT22;22480;50.546;12.292;2022-12-01T11:40:51;0.70;99.90
36458;DHT22;22480;50.546;12.292;2022-12-01T11:43:37;0.80;99.90
36458;DHT22;22480;50.546;12.292;2022-12-01T11:46:08;0.80;99.90
36458;DHT22;22480;50.546;12.292;2022-12-01T11:48:35;0.80;99.90
36458;DHT22;22480;50.546;12.292;2022-12-01T11:51:25;0.90;99.90
36458;DHT22;22480;50.546;12.292;2022-12-01T11:54:25;0.90;99.90
36458;DHT22;22480;50.546;12.292;2022-12-01T11:56:52;0.90;99.90
36458;DHT22;22480;50.546;12.292;2022-12-01T11:59:26;0.90;99.90
36458;DHT22;22480;50.546;12.292;2022-12-01T12:02:29;0.90;99.90
36458;DHT22;22480;50.546;12.292;2022-12-01T12:12:56;0.90;99.90
36458;DHT22;22480;50.546;12.292;2022-12-01T12:18:28;0.80;99.90
36458;DHT22;22480;50.546;12.292;2022-12-01T12:26:37;0.80;99.90
36458;DHT22;22480;50.546;12.292;2022-12-01T12:32:06;0.80;99.90
36458;DHT22;22480;50.546;12.292;2022-12-01T12:45:22;0.80;99.90
36458;DHT22;22480;50.546;12.292;2022-12-01T12:48:22;0.80;99.90
36458;DHT22;22480;50.546;12.292;2022-12-01T12:53:43;0.70;99.90
36458;DHT22;22480;50.546;12.292;2022-12-01T12:56:13;0.70;99.90
36458;DHT22;22480;50.546;12.292;2022-12-01T12:58:56;0.60;99.90
36458;DHT22;22480;50.546;12.292;2022-12-01T13:01:29;0.70;99.90
36458;DHT22;22480;50.546;12.292;2022-12-01T13:04:02;0.70;99.90
36458;DHT22;22480;50.546;12.292;2022-12-01T13:07:17;0.70;99.90
36458;DHT22;22480;50.546;12.292;2022-12-01T13:09:42;0.60;99.90
36458;DHT22;22480;50.546;12.292;2022-12-01T13:12:27;0.60;99.90
36458;DHT22;22480;50.546;12.292;2022-12-01T13:17:35;0.60;99.90
36458;DHT22;22480;50.546;12.292;2022-12-01T13:20:02;0.60;99.90
36458;DHT22;22480;50.546;12.292;2022-12-01T13:22:33;0.60;99.90
36458;DHT22;22480;50.546;12.292;2022-12-01T13:25:01;0.70;99.90
36458;DHT22;22480;50.546;12.292;2022-12-01T13:27:30;0.70;99.90
36458;DHT22;22480;50.546;12.292;2022-12-01T13:29:58;0.70;99.90
36458;DHT22;22480;50.546;12.292;2022-12-01T13:32:36;0.70;99.90
36458;DHT22;22480;50.546;12.292;2022-12-01T13:37:49;0.70;99.90
36458;DHT22;22480;50.546;12.292;2022-12-01T13:40:24;0.70;99.90
36458;DHT22;22480;50.546;12.292;2022-12-01T13:43:05;0.70;99.90
36458;DHT22;22480;50.546;12.292;2022-12-01T13:45:39;0.70;99.90
36458;DHT22;22480;50.546;12.292;2022-12-01T13:48:07;0.70;99.90
36458;DHT22;22480;50.546;12.292;2022-12-01T13:53:29;0.60;99.90
36458;DHT22;22480;50.546;12.292;2022-12-01T14:04:26;0.60;99.90
36458;DHT22;22480;50.546;12.292;2022-12-01T14:07:12;0.60;99.90
36458;DHT22;22480;50.546;12.292;2022-12-01T14:09:40;0.70;99.90
36458;DHT22;22480;50.546;12.292;2022-12-01T14:12:24;0.60;99.90
36458;DHT22;22480;50.546;12.292;2022-12-01T14:15:00;0.60;99.90
36458;DHT22;22480;50.546;12.292;2022-12-01T14:17:36;0.60;99.90
36458;DHT22;22480;50.546;12.292;2022-12-01T14:20:20;0.60;99.90
36458;DHT22;22480;50.546;12.292;2022-12-01T14:23:23;0.60;99.90
36458;DHT22;22480;50.546;12.292;2022-12-01T14:31:21;0.60;99.90
36458;DHT22;22480;50.546;12.292;2022-12-01T14:33:51;0.60;99.90
36458;DHT22;22480;50.546;12.292;2022-12-01T14:38:52;0.50;99.90
36458;DHT22;22480;50.546;12.292;2022-12-01T14:42:05;0.60;99.90
36458;DHT22;22480;50.546;12.292;2022-12-01T14:44:30;0.50;99.90
36458;DHT22;22480;50.546;12.292;2022-12-01T14:49:38;0.50;99.90
36458;DHT22;22480;50.546;12.292;2022-12-01T14:52:12;0.50;99.90
36458;DHT22;22480;50.546;12.292;2022-12-01T14:54:44;0.50;99.90
36458;DHT22;22480;50.546;12.292;2022-12-01T14:57:12;0.50;99.90
36458;DHT22;22480;50.546;12.292;2022-12-01T14:59:40;0.50;99.90
36458;DHT22;22480;50.546;12.292;2022-12-01T15:02:08;0.50;99.90
36458;DHT22;22480;50.546;12.292;2022-12-01T15:05:04;0.50;99.90
36458;DHT22;22480;50.546;12.292;2022-12-01T15:07:39;0.50;99.90
36458;DHT22;22480;50.546;12.292;2022-12-01T15:12:40;0.50;99.90
36458;DHT22;22480;50.546;12.292;2022-12-01T15:15:18;0.50;99.90
36458;DHT22;22480;50.546;12.292;2022-12-01T15:17:44;0.40;99.90
36458;DHT22;22480;50.546;12.292;2022-12-01T15:20:32;0.40;99.90
36458;DHT22;22480;50.546;12.292;2022-12-01T15:23:00;0.40;99.90
36458;DHT22;22480;50.546;12.292;2022-12-01T15:25:31;0.40;99.90
36458;DHT22;22480;50.546;12.292;2022-12-01T15:28:02;0.30;99.90
36458;DHT22;22480;50.546;12.292;2022-12-01T15:30:29;0.30;99.90
36458;DHT22;22480;50.546;12.292;2022-12-01T15:32:56;0.30;99.90
36458;DHT22;22480;50.546;12.292;2022-12-01T15:35:22;0.20;99.90
36458;DHT22;22480;50.546;12.292;2022-12-01T15:37:49;0.30;99.90
36458;DHT22;22480;50.546;12.292;2022-12-01T15:40:18;0.30;99.90
36458;DHT22;22480;50.546;12.292;2022-12-01T15:42:53;0.20;99.90
36458;DHT22;22480;50.546;12.292;2022-12-01T15:45:24;0.30;99.90
36458;DHT22;22480;50.546;12.292;2022-12-01T15:47:51;0.20;99.90
36458;DHT22;22480;50.546;12.292;2022-12-01T15:50:35;0.20;99.90
36458;DHT22;22480;50.546;12.292;2022-12-01T15:53:06;0.20;99.90
36458;DHT22;22480;50.546;12.292;2022-12-01T15:55:34;0.30;99.90
36458;DHT22;22480;50.546;12.292;2022-12-01T15:58:01;0.30;99.90
36458;DHT22;22480;50.546;12.292;2022-12-01T16:00:31;0.30;99.90
36458;DHT22;22480;50.546;12.292;2022-12-01T16:02:58;0.30;99.90
36458;DHT22;22480;50.546;12.292;2022-12-01T16:05:32;0.30;99.90
36458;DHT22;22480;50.546;12.292;2022-12-01T16:08:20;0.30;99.90
36458;DHT22;22480;50.546;12.292;2022-12-01T16:11:10;0.30;99.90
36458;DHT22;22480;50.546;12.292;2022-12-01T16:13:43;0.30;99.90
36458;DHT22;22480;50.546;12.292;2022-12-01T16:21:49;0.20;99.90
36458;DHT22;22480;50.546;12.292;2022-12-01T16:24:21;0.20;99.90
36458;DHT22;22480;50.546;12.292;2022-12-01T16:27:35;0.20;99.90
36458;DHT22;22480;50.546;12.292;2022-12-01T16:29:49;0.20;99.90
36458;DHT22;22480;50.546;12.292;2022-12-01T16:32:21;0.20;99.90
36458;DHT22;22480;50.546;12.292;2022-12-01T16:34:50;0.20;99.90
36458;DHT22;22480;50.546;12.292;2022-12-01T16:37:17;0.30;99.90
36458;DHT22;22480;50.546;12.292;2022-12-01T16:39:43;0.20;99.90
36458;DHT22;22480;50.546;12.292;2022-12-01T16:42:14;0.20;99.90
36458;DHT22;22480;50.546;12.292;2022-12-01T16:44:40;0.20;99.90
36458;DHT22;22480;50.546;12.292;2022-12-01T16:47:25;0.20;99.90
36458;DHT22;22480;50.546;12.292;2022-12-01T16:49:51;0.20;99.90
36458;DHT22;22480;50.546;12.292;2022-12-01T16:52:18;0.20;99.90
36458;DHT22;22480;50.546;12.292;2022-12-01T16:54:43;0.20;99.90
36458;DHT22;22480;50.546;12.292;2022-12-01T16:57:12;0.20;99.90
36458;DHT22;22480;50.546;12.292;2022-12-01T16:59:38;0.20;99.90
36458;DHT22;22480;50.546;12.292;2022-12-01T17:02:03;0.10;99.90
36458;DHT22;22480;50.546;12.292;2022-12-01T17:04:29;0.10;99.90
36458;DHT22;22480;50.546;12.292;2022-12-01T17:06:55;0.10;99.90
36458;DHT22;22480;50.546;12.292;2022-12-01T17:09:21;0.20;99.90
36458;DHT22;22480;50.546;12.292;2022-12-01T17:11:47;0.10;99.90
36458;DHT22;22480;50.546;12.292;2022-12-01T17:14:12;0.10;99.90
36458;DHT22;22480;50.546;12.292;2022-12-01T17:16:38;0.20;99.90
36458;DHT22;22480;50.546;12.292;2022-12-01T17:19:04;0.10;99.90
36458;DHT22;22480;50.546;12.292;2022-12-01T17:21:30;0.10;99.90
36458;DHT22;22480;50.546;12.292;2022-12-01T17:23:56;0.10;99.90
36458;DHT22;22480;50.546;12.292;2022-12-01T17:26:22;0.10;99.90
36458;DHT22;22480;50.546;12.292;2022-12-01T17:28:48;0.20;99.90
36458;DHT22;22480;50.546;12.292;2022-12-01T17:31:14;0.10;99.90
36458;DHT22;22480;50.546;12.292;2022-12-01T17:33:40;0.10;99.90
36458;DHT22;22480;50.546;12.292;2022-12-01T17:36:10;0.00;99.90
36458;DHT22;22480;50.546;12.292;2022-12-01T17:38:37;0.10;99.90
36458;DHT22;22480;50.546;12.292;2022-12-01T17:41:07;0.10;99.90
36458;DHT22;22480;50.546;12.292;2022-12-01T17:43:34;0.10;99.90
36458;DHT22;22480;50.546;12.292;2022-12-01T17:46:01;0.00;99.90
36458;DHT22;22480;50.546;12.292;2022-12-01T17:48:27;0.00;99.90
36458;DHT22;22480;50.546;12.292;2022-12-01T17:50:53;0.10;99.90
36458;DHT22;22480;50.546;12.292;2022-12-01T17:53:19;0.10;99.90
36458;DHT22;22480;50.546;12.292;2022-12-01T17:55:45;0.00;99.90
36458;DHT22;22480;50.546;12.292;2022-12-01T17:58:10;0.00;99.90
36458;DHT22;22480;50.546;12.292;2022-12-01T18:00:37;0.00;99.90
36458;DHT22;22480;50.546;12.292;2022-12-01T18:03:03;0.00;99.90
36458;DHT22;22480;50.546;12.292;2022-12-01T18:05:28;0.00;99.90
36458;DHT22;22480;50.546;12.292;2022-12-01T18:07:54;0.00;99.90
36458;DHT22;22480;50.546;12.292;2022-12-01T18:10:20;0.00;99.90